Time;durP1;ratioP1;P1;durP2;ratioP2;P2;SDS_P1;SDS_P2;PMS_P1;PMS_P2;Temp;Humidity;BMP_temperature;BMP_pressure;BME280_temperature;BME280_humidity;BME280_pressure;Samples;Min_cycle;Max_cycle;Signal;HPM_P1;HPM_P2
2023/10/28 00:00:44;;;;;;;1.65;1.52;;;;;;;2.13;79.95;99301.53;5008170;28;20029;-69
2023/10/28 00:03:09;;;;;;;2.15;1.95;;;;;;;2.12;80.10;99288.69;5008464;28;20029;-70
2023/10/28 00:05:35;;;;;;;3.05;1.23;;;;;;;2.12;80.09;99287.00;5006974;28;20031;-70
2023/10/28 00:08:01;;;;;;;1.10;0.95;;;;;;;2.10;80.08;99283.56;5008247;28;20310;-69
2023/10/28 00:10:28;;;;;;;0.88;0.82;;;;;;;2.15;80.09;99297.28;5006792;28;20029;-70
2023/10/28 00:12:54;;;;;;;1.02;0.95;;;;;;;1.95;80.12;99263.84;5008171;28;20037;-69
2023/10/28 00:15:19;;;;;;;1.23;1.13;;;;;;;2.13;80.13;99292.97;5022995;28;20026;-69
2023/10/28 00:17:47;;;;;;;1.70;1.35;;;;;;;2.10;80.22;99294.69;5008171;28;20030;-70
2023/10/28 00:20:14;;;;;;;1.73;1.63;;;;;;;2.10;80.25;99288.69;5008000;28;20041;-70
2023/10/28 00:22:40;;;;;;;1.67;1.45;;;;;;;2.07;80.30;99293.78;5007644;28;20137;-70
2023/10/28 00:25:06;;;;;;;3.53;1.67;;;;;;;2.07;80.49;99297.22;5006591;28;20030;-70
2023/10/28 00:27:33;;;;;;;1.23;1.13;;;;;;;2.00;80.36;99279.22;5007828;28;20549;-69
2023/10/28 00:30:01;;;;;;;1.20;1.15;;;;;;;1.93;80.58;99291.94;5007596;28;20057;-69
2023/10/28 00:32:27;;;;;;;2.58;1.98;;;;;;;2.06;80.66;99304.88;5007654;28;20057;-70
2023/10/28 00:34:52;;;;;;;4.57;1.58;;;;;;;2.02;80.69;99298.88;5007675;28;20030;-69
2023/10/28 00:37:17;;;;;;;1.30;1.05;;;;;;;2.07;80.75;99301.47;5007845;28;20049;-69
2023/10/28 00:39:43;;;;;;;1.80;1.45;;;;;;;2.08;80.92;99303.16;5005695;28;20022;-70
2023/10/28 00:42:13;;;;;;;1.48;1.38;;;;;;;2.08;80.84;99310.84;5007352;28;20026;-69
2023/10/28 00:44:39;;;;;;;1.80;1.15;;;;;;;2.07;81.11;99304.91;5007374;28;20029;-69
2023/10/28 00:47:05;;;;;;;5.05;2.72;;;;;;;2.09;80.90;99299.78;5007592;28;20032;-70
2023/10/28 00:49:31;;;;;;;1.52;1.38;;;;;;;2.09;81.18;99303.19;5005941;28;20030;-70
2023/10/28 00:51:57;;;;;;;1.90;1.70;;;;;;;2.08;81.07;99300.63;5007314;28;20070;-71
2023/10/28 00:54:23;;;;;;;2.45;1.05;;;;;;;2.11;81.23;99305.75;5006021;28;20030;-69
2023/10/28 00:56:49;;;;;;;4.25;2.05;;;;;;;2.06;81.18;99299.75;5007313;28;20037;-69
2023/10/28 00:59:15;;;;;;;1.40;1.30;;;;;;;2.07;81.15;99297.22;5007087;28;20022;-70
2023/10/28 01:01:40;;;;;;;1.65;1.45;;;;;;;2.11;81.16;99305.75;5005757;28;20026;-69
2023/10/28 01:04:06;;;;;;;1.40;1.30;;;;;;;2.08;81.26;99296.34;5005552;28;20478;-69
2023/10/28 01:06:31;;;;;;;1.65;1.55;;;;;;;2.10;81.15;99288.69;5005892;28;20064;-71
2023/10/28 01:08:57;;;;;;;1.27;1.15;;;;;;;2.12;81.28;99292.13;5007273;28;20018;-69
2023/10/28 01:11:22;;;;;;;1.00;0.90;;;;;;;2.07;81.38;99294.66;5005757;28;20030;-71
2023/10/28 01:13:47;;;;;;;1.23;1.23;;;;;;;2.12;81.45;99296.38;5006718;28;20418;-69
2023/10/28 01:16:13;;;;;;;1.00;0.95;;;;;;;2.07;81.46;99292.09;5006852;28;20026;-69
2023/10/28 01:18:38;;;;;;;3.20;2.10;;;;;;;2.12;81.50;99294.69;5005673;28;20158;-69
2023/10/28 01:21:13;;;;;;;2.53;1.42;;;;;;;2.12;81.62;99292.13;5006869;28;20027;-69
2023/10/28 01:23:38;;;;;;;1.55;1.27;;;;;;;2.13;81.65;99296.41;5006876;28;20023;-69
2023/10/28 01:26:03;;;;;;;1.88;1.50;;;;;;;2.12;81.61;99294.69;5005466;28;20018;-70
2023/10/28 01:28:29;;;;;;;2.25;1.40;;;;;;;2.06;81.78;99290.34;5006759;28;20026;-70
2023/10/28 01:30:56;;;;;;;2.15;1.95;;;;;;;2.11;81.73;99292.97;5006210;28;20026;-69
2023/10/28 01:33:22;;;;;;;1.42;1.33;;;;;;;2.12;81.75;99291.25;5005739;28;20031;-69
2023/10/28 01:35:47;;;;;;;1.77;1.50;;;;;;;2.13;81.84;99298.97;5006482;28;20033;-70
2023/10/28 01:38:13;;;;;;;0.98;0.98;;;;;;;2.11;81.85;99287.84;5006702;28;20018;-69
2023/10/28 01:40:38;;;;;;;0.85;0.85;;;;;;;2.13;81.86;99287.84;5006271;28;20030;-70
2023/10/28 01:43:04;;;;;;;1.50;1.30;;;;;;;2.12;81.95;99293.81;5006616;28;20050;-69
2023/10/28 01:45:31;;;;;;;1.48;1.38;;;;;;;2.14;82.05;99294.69;5006367;28;20090;-69
2023/10/28 01:47:56;;;;;;;1.42;1.17;;;;;;;2.14;82.20;99292.13;5006414;28;20083;-69
2023/10/28 01:50:21;;;;;;;3.03;1.75;;;;;;;2.16;82.09;99291.31;5006349;28;20046;-69
2023/10/28 01:52:47;;;;;;;3.63;2.05;;;;;;;2.14;82.23;99287.03;5005011;28;20478;-69
2023/10/28 01:55:13;;;;;;;3.35;3.10;;;;;;;2.19;82.28;99290.47;5006474;28;20033;-69
2023/10/28 01:57:38;;;;;;;3.85;1.27;;;;;;;2.18;82.10;99286.19;5006206;28;20224;-70
2023/10/28 02:00:12;;;;;;;5.80;1.52;;;;;;;2.18;82.15;99275.94;5006147;28;20360;-69
2023/10/28 02:02:37;;;;;;;2.88;2.65;;;;;;;2.18;82.29;99276.81;5004798;28;20014;-69
2023/10/28 02:05:03;;;;;;;1.90;1.08;;;;;;;2.23;82.23;99284.53;5004754;28;20058;-69
2023/10/28 02:07:28;;;;;;;1.38;1.00;;;;;;;2.23;82.21;99282.84;5006182;28;20022;-69
2023/10/28 02:09:53;;;;;;;1.45;1.35;;;;;;;2.22;82.19;99283.66;5006166;28;20105;-69
2023/10/28 02:12:19;;;;;;;2.53;2.33;;;;;;;2.14;82.23;99269.94;5005846;28;20544;-69
2023/10/28 02:14:46;;;;;;;4.30;2.65;;;;;;;2.20;82.17;99279.38;5005969;28;20030;-70
2023/10/28 02:17:11;;;;;;;3.72;1.63;;;;;;;2.23;82.18;99287.97;5006216;28;20022;-70
2023/10/28 02:19:38;;;;;;;7.72;2.45;;;;;;;2.22;82.19;99285.38;5005812;28;20049;-70
2023/10/28 02:22:04;;;;;;;1.50;1.40;;;;;;;2.26;82.32;99288.81;5005782;28;20165;-70
2023/10/28 02:24:29;;;;;;;1.25;1.20;;;;;;;2.23;82.28;99284.53;4988183;28;20038;-70
2023/10/28 02:26:55;;;;;;;1.45;1.33;;;;;;;2.23;82.35;99289.66;5005572;28;20022;-70
2023/10/28 02:29:21;;;;;;;1.95;1.52;;;;;;;2.18;82.36;99278.50;5005682;28;20052;-70
2023/10/28 02:31:48;;;;;;;1.27;1.17;;;;;;;2.22;82.33;99288.78;5005786;28;20022;-70
2023/10/28 02:34:14;;;;;;;1.45;1.35;;;;;;;2.18;82.54;99278.50;5005603;28;20029;-70
2023/10/28 02:36:39;;;;;;;0.98;0.98;;;;;;;2.18;82.50;99281.94;5005830;28;20026;-70
2023/10/28 02:39:05;;;;;;;3.45;2.17;;;;;;;2.21;82.63;99287.06;5004408;28;20033;-70
2023/10/28 02:41:31;;;;;;;1.00;1.00;;;;;;;2.18;82.62;99294.75;5005778;28;20043;-70
2023/10/28 02:43:57;;;;;;;1.83;1.48;;;;;;;2.16;82.74;99286.19;5005428;28;20030;-71
2023/10/28 02:46:24;;;;;;;2.20;1.65;;;;;;;2.20;82.72;99292.19;5005512;28;20029;-69
2023/10/28 02:48:51;;;;;;;7.60;3.90;;;;;;;2.15;82.78;99287.03;5005628;28;20078;-69
2023/10/28 02:51:17;;;;;;;2.60;2.40;;;;;;;2.16;82.80;99287.88;5005403;28;20072;-70
2023/10/28 02:53:43;;;;;;;1.85;1.73;;;;;;;2.18;82.95;99293.88;5005556;28;20022;-70
2023/10/28 02:56:08;;;;;;;5.80;2.33;;;;;;;2.20;82.92;99294.75;5003826;28;20493;-70
2023/10/28 02:58:34;;;;;;;0.73;0.73;;;;;;;2.20;83.06;99298.19;5004128;28;20022;-70
2023/10/28 03:01:09;;;;;;;1.33;1.23;;;;;;;2.16;83.09;99291.31;5005182;28;20117;-69
2023/10/28 03:03:35;;;;;;;0.68;0.68;;;;;;;2.16;82.70;99298.13;5006349;28;20018;-70
2023/10/28 03:06:01;;;;;;;0.77;0.77;;;;;;;2.17;83.08;99290.44;5009513;28;20105;-70
2023/10/28 03:08:26;;;;;;;1.85;1.20;;;;;;;2.16;83.24;99287.88;5009510;28;20058;-70
2023/10/28 03:10:51;;;;;;;1.83;1.73;;;;;;;2.20;83.24;99293.06;5009184;28;20022;-69
2023/10/28 03:13:17;;;;;;;3.08;2.80;;;;;;;2.21;83.26;99301.56;5009260;28;20026;-71
2023/10/28 03:15:46;;;;;;;1.40;1.10;;;;;;;2.16;83.39;99293.00;5009337;28;20038;-69
2023/10/28 03:18:12;;;;;;;8.57;1.52;;;;;;;2.19;83.50;99300.72;5008031;28;20026;-70
2023/10/28 03:20:37;;;;;;;1.67;1.58;;;;;;;2.22;83.48;99300.75;5009250;28;20030;-70
2023/10/28 03:23:03;;;;;;;1.10;1.02;;;;;;;2.21;83.38;99297.31;5008890;28;20105;-70
2023/10/28 03:25:28;;;;;;;1.63;1.55;;;;;;;2.22;83.35;99299.03;5009125;28;20026;-69
2023/10/28 03:27:54;;;;;;;4.95;2.20;;;;;;;2.24;83.39;99309.28;5009341;28;20022;-69
2023/10/28 03:30:19;;;;;;;0.98;0.90;;;;;;;2.25;83.38;99305.91;5008818;28;20105;-70
2023/10/28 03:32:44;;;;;;;1.58;1.05;;;;;;;2.21;83.48;99299.00;5008934;28;20509;-69
2023/10/28 03:35:10;;;;;;;2.50;1.90;;;;;;;2.23;83.40;99298.19;5007543;28;20023;-69
2023/10/28 03:37:37;;;;;;;3.30;1.38;;;;;;;2.20;83.50;99294.75;5008860;28;20049;-69
2023/10/28 03:40:04;;;;;;;1.85;1.00;;;;;;;2.23;83.58;99305.00;5008935;28;20054;-68
2023/10/28 03:42:30;;;;;;;1.38;1.27;;;;;;;2.20;83.68;99298.19;5009062;28;20018;-69
2023/10/28 03:44:55;;;;;;;3.30;1.20;;;;;;;2.23;83.63;99308.44;5007453;28;20041;-69
2023/10/28 03:47:21;;;;;;;4.57;1.60;;;;;;;2.26;83.93;99309.28;5008716;28;20030;-69
2023/10/28 03:49:47;;;;;;;0.75;0.75;;;;;;;2.27;83.79;99308.47;5008815;28;20026;-69
2023/10/28 03:52:12;;;;;;;6.28;2.03;;;;;;;2.27;83.66;99309.31;5008505;28;20028;-69
2023/10/28 03:54:38;;;;;;;2.80;2.10;;;;;;;2.31;83.78;99315.31;5007322;28;20119;-70
2023/10/28 03:57:04;;;;;;;5.40;2.17;;;;;;;2.31;83.68;99311.06;5008538;28;20030;-69
2023/10/28 03:59:29;;;;;;;0.77;0.75;;;;;;;2.27;83.77;99305.91;5023529;28;20026;-70
2023/10/28 04:01:55;;;;;;;1.55;1.42;;;;;;;2.29;83.78;99309.31;5008395;28;20226;-70
2023/10/28 04:04:21;;;;;;;1.95;1.05;;;;;;;2.34;83.83;99315.34;5008387;28;20060;-70
2023/10/28 04:06:46;;;;;;;0.95;0.95;;;;;;;2.32;83.92;99314.47;5008668;28;20134;-70
2023/10/28 04:09:14;;;;;;;2.30;2.08;;;;;;;2.33;83.78;99317.03;5008393;28;20037;-71
2023/10/28 04:11:39;;;;;;;1.33;1.23;;;;;;;2.29;83.98;99306.75;5006993;28;20050;-69
2023/10/28 04:14:05;;;;;;;1.58;1.35;;;;;;;2.30;84.45;99308.50;5007928;28;20045;-69
2023/10/28 04:16:30;;;;;;;1.25;0.93;;;;;;;2.32;83.93;99309.34;5006821;28;20041;-70
2023/10/28 04:18:56;;;;;;;1.45;1.42;;;;;;;2.32;84.14;99310.22;5008086;28;20030;-69
2023/10/28 04:21:21;;;;;;;1.15;1.05;;;;;;;2.28;84.03;99300.78;5007629;28;20112;-70
2023/10/28 04:23:46;;;;;;;3.05;2.05;;;;;;;2.33;84.19;99308.50;5008279;28;20026;-69
2023/10/28 04:26:12;;;;;;;1.52;1.10;;;;;;;2.29;84.10;99305.06;5007907;28;20030;-70
2023/10/28 04:28:38;;;;;;;2.45;2.22;;;;;;;2.33;84.14;99308.50;5006567;28;20026;-69
2023/10/28 04:31:04;;;;;;;5.00;0.98;;;;;;;2.33;84.16;99313.63;5007837;28;20097;-70
2023/10/28 04:33:29;;;;;;;1.35;1.23;;;;;;;2.32;84.24;99317.88;5007801;28;20027;-70
2023/10/28 04:35:55;;;;;;;1.67;1.58;;;;;;;2.31;84.25;99307.63;5007760;28;20057;-70
2023/10/28 04:38:21;;;;;;;1.40;1.20;;;;;;;2.31;84.05;99315.31;5007671;28;20025;-70
2023/10/28 04:40:46;;;;;;;2.97;1.58;;;;;;;2.34;84.25;99320.47;5007669;28;20034;-70
2023/10/28 04:43:12;;;;;;;1.02;1.02;;;;;;;2.35;84.19;99329.84;5007695;28;20438;-70
2023/10/28 04:45:42;;;;;;;0.77;0.77;;;;;;;2.35;84.23;99324.72;5006141;28;20545;-70
2023/10/28 04:48:09;;;;;;;2.08;1.52;;;;;;;2.43;84.11;99319.69;5007562;28;20033;-70
2023/10/28 04:50:35;;;;;;;0.73;0.73;;;;;;;2.40;84.19;99322.19;5007526;28;20026;-70
2023/10/28 04:53:01;;;;;;;1.77;1.20;;;;;;;2.45;84.10;99318.84;5007264;28;20038;-69
2023/10/28 04:55:26;;;;;;;3.08;1.85;;;;;;;2.35;84.23;99309.34;5007591;28;20052;-69
2023/10/28 04:57:51;;;;;;;1.50;1.40;;;;;;;2.51;84.10;99327.44;5007607;28;20027;-70
2023/10/28 05:00:18;;;;;;;1.65;0.98;;;;;;;2.52;84.00;99321.44;5007427;28;20137;-71
2023/10/28 05:02:44;;;;;;;3.83;1.05;;;;;;;2.51;84.00;99319.75;5007513;28;20023;-71
2023/10/28 05:05:10;;;;;;;0.80;0.80;;;;;;;2.48;83.98;99323.13;5007216;28;20066;-71
2023/10/28 05:07:35;;;;;;;0.75;0.75;;;;;;;2.49;84.07;99319.72;5005943;28;20786;-70
2023/10/28 05:10:01;;;;;;;0.60;0.60;;;;;;;2.45;84.06;99318.84;5006070;28;20089;-70
2023/10/28 05:12:26;;;;;;;1.67;0.85;;;;;;;2.47;84.20;99319.72;5006955;28;20094;-70
2023/10/28 05:14:52;;;;;;;1.23;1.23;;;;;;;2.48;84.07;99326.56;5006859;28;20031;-71
2023/10/28 05:17:18;;;;;;;0.77;0.77;;;;;;;2.52;83.91;99329.13;5007252;28;20422;-71
2023/10/28 05:19:43;;;;;;;1.48;1.00;;;;;;;2.47;84.01;99326.53;4989463;28;20090;-71
2023/10/28 05:22:09;;;;;;;1.08;1.05;;;;;;;2.47;83.95;99332.53;5006679;28;20050;-70
2023/10/28 05:24:34;;;;;;;0.60;0.60;;;;;;;2.46;83.91;99328.22;5005659;28;20026;-70
2023/10/28 05:26:59;;;;;;;0.88;0.88;;;;;;;2.45;84.22;99331.66;5006601;28;20022;-71
2023/10/28 05:29:25;;;;;;;1.08;1.05;;;;;;;2.45;84.11;99338.47;5005671;28;20462;-72
2023/10/28 05:31:50;;;;;;;0.73;0.73;;;;;;;2.45;84.01;99331.66;5006791;28;20018;-69
2023/10/28 05:34:18;;;;;;;1.50;1.30;;;;;;;2.45;84.31;99338.47;5005505;28;20027;-70
2023/10/28 05:36:44;;;;;;;1.38;1.27;;;;;;;2.47;84.22;99347.91;5006869;28;20022;-70
2023/10/28 05:39:09;;;;;;;0.50;0.50;;;;;;;2.46;84.14;99341.03;5006498;28;20110;-70
2023/10/28 05:41:34;;;;;;;1.40;1.30;;;;;;;2.45;83.88;99341.91;5006596;28;20026;-69
2023/10/28 05:44:00;;;;;;;0.95;0.90;;;;;;;2.47;84.31;99347.03;5006589;28;20018;-70
2023/10/28 05:46:25;;;;;;;0.95;0.93;;;;;;;2.46;84.29;99335.91;5005211;28;20026;-71
2023/10/28 05:48:51;;;;;;;0.60;0.60;;;;;;;2.48;84.23;99349.59;5006211;28;20050;-70
2023/10/28 05:51:17;;;;;;;0.73;0.73;;;;;;;2.48;84.30;99349.59;5006275;28;20026;-70
2023/10/28 05:53:42;;;;;;;0.63;0.63;;;;;;;2.49;84.14;99345.34;5006156;28;20145;-71
2023/10/28 05:56:07;;;;;;;0.60;0.60;;;;;;;2.36;84.13;99326.47;5004994;28;20026;-70
2023/10/28 05:58:33;;;;;;;1.13;1.02;;;;;;;2.46;84.21;99347.91;5006448;28;20111;-71
2023/10/28 06:01:02;;;;;;;0.98;0.98;;;;;;;2.50;84.60;99356.44;5005921;28;20050;-71
2023/10/28 06:03:27;;;;;;;0.82;0.82;;;;;;;2.53;84.31;99354.78;5004843;28;20019;-71
2023/10/28 06:05:52;;;;;;;1.48;1.38;;;;;;;2.53;84.36;99365.00;5006006;28;20065;-70
2023/10/28 06:08:18;;;;;;;1.50;1.40;;;;;;;2.47;84.13;99360.72;4988741;28;20046;-70
2023/10/28 06:10:47;;;;;;;0.40;0.40;;;;;;;2.48;83.95;99362.41;5006019;28;20049;-69
2023/10/28 06:13:13;;;;;;;1.55;0.88;;;;;;;2.51;84.42;99368.41;5005785;28;20026;-69
2023/10/28 06:15:38;;;;;;;0.73;0.73;;;;;;;2.48;84.30;99359.84;5005857;28;20106;-70
2023/10/28 06:18:04;;;;;;;0.40;0.40;;;;;;;2.41;84.21;99359.81;5004824;28;20022;-70
2023/10/28 06:20:30;;;;;;;1.95;1.65;;;;;;;2.53;84.40;99375.25;5006067;28;20269;-70
2023/10/28 06:22:56;;;;;;;0.65;0.65;;;;;;;2.45;84.38;99364.97;5005754;28;20050;-70
2023/10/28 06:25:21;;;;;;;0.40;0.40;;;;;;;2.51;84.35;99374.38;5005647;28;20034;-70
2023/10/28 06:27:46;;;;;;;0.70;0.70;;;;;;;2.51;84.12;99378.66;5004505;28;20475;-70
2023/10/28 06:30:12;;;;;;;0.80;0.80;;;;;;;2.52;84.30;99381.25;5004304;28;20475;-70
2023/10/28 06:32:38;;;;;;;0.65;0.63;;;;;;;2.55;84.12;99380.41;5005627;28;20081;-70
2023/10/28 06:35:05;;;;;;;0.80;0.80;;;;;;;2.54;84.05;99400.03;5004375;28;20038;-70
2023/10/28 06:37:30;;;;;;;0.60;0.60;;;;;;;2.54;84.23;99383.81;5020437;28;20030;-70
2023/10/28 06:39:56;;;;;;;0.50;0.50;;;;;;;2.56;84.01;99389.78;5005228;28;20022;-70
2023/10/28 06:42:23;;;;;;;0.98;0.98;;;;;;;2.54;83.95;99386.38;5005369;28;20132;-69
2023/10/28 06:44:48;;;;;;;0.70;0.70;;;;;;;2.56;83.99;99395.78;5005486;28;20053;-69
2023/10/28 06:47:13;;;;;;;0.50;0.50;;;;;;;2.52;83.92;99391.50;5005387;28;20135;-70
2023/10/28 06:49:39;;;;;;;1.17;1.15;;;;;;;2.51;83.99;99384.63;5005420;28;20467;-71
2023/10/28 06:52:05;;;;;;;0.40;0.40;;;;;;;2.54;83.83;99401.75;5005499;28;20022;-68
2023/10/28 06:54:31;;;;;;;0.55;0.55;;;;;;;2.55;84.19;99406.03;5005543;28;20030;-69
2023/10/28 06:56:56;;;;;;;0.70;0.70;;;;;;;2.54;84.25;99401.75;5004309;28;20076;-70
2023/10/28 06:59:23;;;;;;;3.70;1.10;;;;;;;2.56;84.03;99402.59;5003799;28;20022;-69
2023/10/28 07:01:49;;;;;;;0.63;0.63;;;;;;;2.58;84.08;99411.16;5005359;28;20026;-70
2023/10/28 07:04:14;;;;;;;0.73;0.73;;;;;;;2.57;84.01;99412.03;5004079;28;20018;-70
2023/10/28 07:06:40;;;;;;;0.50;0.50;;;;;;;2.58;83.94;99404.34;5005218;28;20018;-70
2023/10/28 07:09:05;;;;;;;0.40;0.40;;;;;;;2.61;84.05;99424.00;5005315;28;20069;-70
2023/10/28 07:11:32;;;;;;;1.85;1.20;;;;;;;2.63;84.13;99430.00;5003879;28;20030;-72
2023/10/28 07:13:57;;;;;;;0.43;0.43;;;;;;;2.66;83.82;99419.78;5003913;28;20050;-69
2023/10/28 07:16:23;;;;;;;0.98;0.98;;;;;;;2.65;83.81;99420.63;5005038;28;20026;-71
2023/10/28 07:18:48;;;;;;;5.75;1.50;;;;;;;2.72;83.66;99429.22;5005294;28;20050;-71
2023/10/28 07:21:14;;;;;;;0.77;0.73;;;;;;;2.73;83.91;99425.81;5004931;28;20030;-70
2023/10/28 07:23:40;;;;;;;0.95;0.60;;;;;;;2.81;83.47;99423.31;5005605;28;20021;-70
2023/10/28 07:26:05;;;;;;;0.57;0.57;;;;;;;2.77;83.87;99421.56;5005210;28;20509;-70
2023/10/28 07:28:34;;;;;;;7.22;1.40;;;;;;;2.80;83.87;99427.56;5005209;28;20073;-70
2023/10/28 07:31:01;;;;;;;0.52;0.52;;;;;;;2.78;83.92;99423.31;5004955;28;20029;-70
2023/10/28 07:33:27;;;;;;;0.60;0.60;;;;;;;2.84;84.01;99431.88;5004919;28;20117;-70
2023/10/28 07:35:53;;;;;;;0.60;0.60;;;;;;;2.86;83.91;99426.75;4987452;28;20022;-71
2023/10/28 07:38:20;;;;;;;0.82;0.82;;;;;;;2.88;84.04;99427.63;5005138;28;20029;-70
2023/10/28 07:40:46;;;;;;;0.63;0.60;;;;;;;2.92;84.08;99431.97;5003791;28;20041;-70
2023/10/28 07:43:13;;;;;;;0.50;0.50;;;;;;;2.86;83.81;99408.81;5005092;28;20018;-70
2023/10/28 07:45:39;;;;;;;0.80;0.80;;;;;;;2.96;83.56;99437.94;5003385;28;20029;-72
2023/10/28 07:48:08;;;;;;;0.50;0.50;;;;;;;3.00;83.58;99443.97;5004866;28;20478;-75
2023/10/28 07:50:34;;;;;;;0.80;0.80;;;;;;;3.00;83.75;99438.84;5007240;28;20033;-69
2023/10/28 07:53:00;;;;;;;0.55;0.55;;;;;;;2.99;83.72;99439.69;5008681;28;20030;-70
2023/10/28 07:55:25;;;;;;;0.57;0.57;;;;;;;3.03;83.93;99443.97;5008592;28;20223;-74
2023/10/28 07:57:50;;;;;;;0.80;0.80;;;;;;;3.04;83.67;99440.56;5008634;28;20024;-73
2023/10/28 08:00:16;;;;;;;1.58;1.48;;;;;;;3.10;83.32;99451.72;5007068;28;20054;-74
2023/10/28 08:02:45;;;;;;;0.40;0.40;;;;;;;3.07;83.49;99445.69;5023669;28;20022;-73
2023/10/28 08:05:11;;;;;;;0.77;0.77;;;;;;;3.12;83.64;99458.56;5008330;28;20030;-73
2023/10/28 08:07:37;;;;;;;0.70;0.60;;;;;;;3.14;83.42;99452.59;5008369;28;20032;-73
2023/10/28 08:10:04;;;;;;;0.55;0.52;;;;;;;3.15;83.60;99445.75;5008345;28;20018;-73
2023/10/28 08:12:30;;;;;;;0.70;0.70;;;;;;;3.20;83.73;99467.16;5008151;28;20030;-73
2023/10/28 08:14:55;;;;;;;0.77;0.77;;;;;;;3.24;83.36;99457.78;5008089;28;20053;-73
2023/10/28 08:17:21;;;;;;;0.60;0.60;;;;;;;3.25;83.36;99462.06;5008240;28;20025;-74
2023/10/28 08:19:47;;;;;;;0.85;0.73;;;;;;;3.30;83.22;99468.97;5008161;28;20057;-74
2023/10/28 08:22:14;;;;;;;20.55;1.73;;;;;;;3.34;83.08;99464.69;5008043;28;20069;-73
2023/10/28 08:24:39;;;;;;;1.00;0.95;;;;;;;3.30;83.19;99463.81;5008031;28;20022;-74
2023/10/28 08:27:05;;;;;;;0.47;0.45;;;;;;;3.30;83.14;99460.41;5007986;28;20022;-72
2023/10/28 08:29:32;;;;;;;0.70;0.70;;;;;;;3.33;83.26;99468.09;5007887;28;20027;-71
2023/10/28 08:31:58;;;;;;;0.85;0.80;;;;;;;3.32;83.09;99467.25;5007919;28;20034;-73
2023/10/28 08:34:24;;;;;;;0.43;0.43;;;;;;;3.38;83.26;99474.13;5006629;28;20037;-72
2023/10/28 08:36:52;;;;;;;1.00;1.00;;;;;;;3.44;83.13;99479.31;5006413;28;20019;-72
2023/10/28 08:39:17;;;;;;;2.15;0.50;;;;;;;3.49;83.13;99481.88;5007717;28;20027;-73
2023/10/28 08:41:42;;;;;;;0.40;0.40;;;;;;;3.53;83.18;99480.22;5007619;28;20026;-72
2023/10/28 08:44:09;;;;;;;0.88;0.80;;;;;;;3.57;83.16;99479.38;5007855;28;20501;-73
2023/10/28 08:46:37;;;;;;;0.70;0.70;;;;;;;3.62;83.13;99476.81;5007716;28;20054;-72
2023/10/28 08:49:04;;;;;;;1.48;0.77;;;;;;;3.67;83.25;99477.72;5007856;28;20077;-72
2023/10/28 08:51:30;;;;;;;1.73;1.63;;;;;;;3.76;82.85;99485.44;5005953;28;20386;-70
2023/10/28 08:53:58;;;;;;;0.50;0.50;;;;;;;3.70;82.65;99483.72;5007297;28;20073;-70
2023/10/28 08:56:25;;;;;;;2.72;1.35;;;;;;;3.65;82.83;99482.84;5007377;28;20068;-73
2023/10/28 08:58:55;;;;;;;2.55;1.75;;;;;;;3.68;83.02;99481.97;5007250;28;20041;-70
2023/10/28 09:01:22;;;;;;;2.67;1.60;;;;;;;3.74;82.47;99505.13;5006458;28;20031;-70
2023/10/28 09:03:53;;;;;;;1.20;1.08;;;;;;;3.67;82.71;99493.97;5007499;28;20101;-70
2023/10/28 09:06:19;;;;;;;1.13;1.02;;;;;;;3.71;82.82;99490.56;5005959;28;20026;-70
2023/10/28 09:08:45;;;;;;;0.40;0.40;;;;;;;3.79;82.51;99498.31;5007137;28;20033;-70
2023/10/28 09:11:11;;;;;;;0.63;0.63;;;;;;;3.81;82.09;99508.56;5007194;28;20077;-73
2023/10/28 09:13:38;;;;;;;0.40;0.40;;;;;;;3.76;82.00;99510.25;5007085;28;20030;-70
2023/10/28 09:16:04;;;;;;;0.68;0.68;;;;;;;3.77;81.78;99510.25;5007168;28;20018;-69
2023/10/28 09:18:39;;;;;;;0.70;0.70;;;;;;;3.76;81.89;99510.25;5007282;28;20022;-70
2023/10/28 09:21:09;;;;;;;0.88;0.88;;;;;;;3.78;81.92;99506.00;5006740;28;20022;-70
2023/10/28 09:23:35;;;;;;;1.13;1.02;;;;;;;3.78;81.66;99511.13;5006916;28;20042;-69
2023/10/28 09:26:01;;;;;;;0.90;0.90;;;;;;;3.67;81.33;99488.84;5006953;28;20030;-71
2023/10/28 09:28:26;;;;;;;0.70;0.70;;;;;;;3.82;81.59;99525.69;5006882;28;20058;-70
2023/10/28 09:30:51;;;;;;;0.65;0.65;;;;;;;3.80;81.63;99519.72;5006720;28;20030;-70
2023/10/28 09:33:18;;;;;;;0.55;0.55;;;;;;;3.83;81.55;99510.28;5006537;28;20024;-71
2023/10/28 09:35:45;;;;;;;0.75;0.73;;;;;;;3.82;81.39;99521.41;5006879;28;20015;-71
2023/10/28 09:38:11;;;;;;;1.05;1.05;;;;;;;3.82;81.38;99521.41;5006416;28;20035;-71
2023/10/28 09:40:37;;;;;;;0.57;0.57;;;;;;;3.84;81.54;99527.44;5006404;28;20025;-71
2023/10/28 09:43:04;;;;;;;0.77;0.65;;;;;;;3.86;81.24;99535.13;5006637;28;20028;-71
2023/10/28 09:45:30;;;;;;;1.02;0.75;;;;;;;3.84;81.08;99524.88;5006190;28;20053;-67
2023/10/28 09:48:02;;;;;;;0.60;0.60;;;;;;;3.81;81.18;99521.41;5006503;28;20036;-67
2023/10/28 09:50:35;;;;;;;0.60;0.60;;;;;;;3.87;81.03;99529.16;5006628;28;20109;-70
2023/10/28 09:53:03;;;;;;;1.27;0.93;;;;;;;3.88;80.93;99535.16;5006307;28;20093;-71
2023/10/28 09:55:35;;;;;;;0.75;0.75;;;;;;;3.83;80.88;99533.41;5006195;28;20030;-71
2023/10/28 09:58:22;;;;;;;0.93;0.77;;;;;;;3.88;80.64;99538.59;5004565;28;20022;-70
2023/10/28 10:00:53;;;;;;;1.45;1.23;;;;;;;3.88;80.76;99538.59;5006045;28;20061;-71
2023/10/28 10:04:00;;;;;;;0.80;0.80;;;;;;;3.96;81.00;99543.75;5006308;28;20103;-72
2023/10/28 10:06:26;;;;;;;0.40;0.40;;;;;;;3.96;80.74;99542.03;5006170;28;20244;-74
2023/10/28 10:08:54;;;;;;;1.80;0.95;;;;;;;3.94;80.59;99538.63;5006033;28;20086;-72
2023/10/28 10:11:22;;;;;;;1.15;1.00;;;;;;;3.99;80.18;99540.34;5005881;28;20037;-71
2023/10/28 10:13:47;;;;;;;0.63;0.63;;;;;;;3.96;80.71;99534.31;4988292;28;20054;-73
2023/10/28 10:16:29;;;;;;;0.70;0.70;;;;;;;4.03;80.51;99542.06;5004469;28;20502;-72
2023/10/28 10:18:58;;;;;;;1.00;1.00;;;;;;;4.00;80.51;99542.03;5005857;28;20026;-73
2023/10/28 10:21:31;;;;;;;0.70;0.70;;;;;;;4.01;80.36;99544.59;5020185;28;20030;-73
2023/10/28 10:24:04;;;;;;;2.13;0.90;;;;;;;4.02;80.48;99542.91;5005677;28;20045;-72
2023/10/28 10:26:32;;;;;;;1.88;1.10;;;;;;;4.04;80.50;99538.66;5005663;28;20033;-73
2023/10/28 10:28:58;;;;;;;0.95;0.60;;;;;;;4.05;80.28;99548.06;5005975;28;20090;-73
2023/10/28 10:31:30;;;;;;;1.10;1.10;;;;;;;4.01;80.04;99543.78;4987785;28;20093;-72
2023/10/28 10:34:01;;;;;;;0.50;0.50;;;;;;;3.99;80.16;99536.06;5020773;28;20022;-74
2023/10/28 10:36:28;;;;;;;0.50;0.50;;;;;;;4.01;80.09;99536.06;5005952;28;20149;-73
2023/10/28 10:38:54;;;;;;;0.80;0.80;;;;;;;3.99;80.05;99532.63;5005842;28;20171;-74
2023/10/28 10:41:27;;;;;;;3.20;1.33;;;;;;;3.96;79.82;99542.03;5005690;28;20090;-73
2023/10/28 10:43:53;;;;;;;0.60;0.60;;;;;;;3.93;80.20;99536.88;5004374;28;20022;-73
2023/10/28 10:46:19;;;;;;;0.90;0.82;;;;;;;3.97;80.23;99537.75;5005418;28;20085;-73
2023/10/28 10:48:46;;;;;;;0.60;0.60;;;;;;;3.95;80.19;99542.03;5005827;28;20022;-73
2023/10/28 10:51:14;;;;;;;0.40;0.40;;;;;;;3.93;79.79;99530.91;5004313;28;20042;-73
2023/10/28 10:53:43;;;;;;;0.95;0.95;;;;;;;3.88;79.72;99532.59;5005433;28;20030;-73
2023/10/28 10:56:19;;;;;;;0.80;0.80;;;;;;;3.92;79.95;99544.56;5005387;28;20030;-73
2023/10/28 10:58:45;;;;;;;0.80;0.80;;;;;;;3.91;80.01;99545.44;5004104;28;20094;-74
2023/10/28 11:01:12;;;;;;;1.65;0.60;;;;;;;3.95;79.74;99549.72;5020433;28;20022;-74
2023/10/28 11:03:38;;;;;;;0.85;0.85;;;;;;;3.93;79.46;99534.31;5005666;28;20033;-74
2023/10/28 11:06:04;;;;;;;1.15;0.93;;;;;;;3.94;79.83;99542.88;5004280;28;20033;-76
2023/10/28 11:08:30;;;;;;;0.50;0.50;;;;;;;3.99;79.95;99540.34;5005728;28;20026;-74
2023/10/28 11:10:55;;;;;;;1.17;1.08;;;;;;;4.00;79.48;99531.75;5004276;28;20052;-73
2023/10/28 11:13:22;;;;;;;0.90;0.90;;;;;;;4.03;79.29;99529.22;5003810;28;20089;-74
2023/10/28 11:15:49;;;;;;;0.60;0.60;;;;;;;4.01;79.36;99548.91;5003947;28;20030;-74
2023/10/28 11:18:15;;;;;;;0.80;0.80;;;;;;;4.02;79.03;99540.34;5005307;28;20045;-74
2023/10/28 11:20:42;;;;;;;0.50;0.50;;;;;;;4.03;78.97;99542.91;5004130;28;20034;-73
2023/10/28 11:23:08;;;;;;;1.60;1.50;;;;;;;3.99;79.05;99535.19;5005161;28;20042;-73
2023/10/28 11:25:34;;;;;;;0.75;0.75;;;;;;;4.02;79.06;99536.06;5007779;28;20049;-75
2023/10/28 11:28:07;;;;;;;1.65;0.88;;;;;;;4.03;78.97;99534.34;5009392;28;20034;-74
2023/10/28 11:30:33;;;;;;;0.63;0.60;;;;;;;4.11;78.33;99536.94;5008981;28;20045;-74
2023/10/28 11:32:58;;;;;;;2.33;0.80;;;;;;;4.08;78.22;99535.22;5009132;28;20046;-75
2023/10/28 11:35:24;;;;;;;6.55;1.27;;;;;;;4.11;77.85;99540.38;5024395;28;20018;-75
2023/10/28 11:37:50;;;;;;;1.42;0.95;;;;;;;4.03;78.14;99526.63;5007836;28;20043;-74